Somerset, CA (95684)

11:50 AM PDT on May 22, 2015 (GMT -0700)
Old Post Office | | Change Station
CLOSE
Current Station
Personal Weather Station
Location: Grizzly Flat, CA
Elevation: 3914 ft
Nearby Weather Stations

Elev 3914 ft 38.64 °N, 120.53 °W | Updated 13 minutes ago

Overcast
Overcast
49.1 °F
Feels Like 49 °F
N
0.0
Wind Variable Wind from North

Today
High -- | Low -- °F
--% Chance of Precip.
Yesterday
High -- | Low -- °F
Precip. -- in
5:45 AM 8:13 PM
Waxing Crescent, 23% visible
Pressure 30.02 in
Visibility 10.0 miles
Clouds Scattered Clouds 1700 ft
Overcast 3500 ft
Windchill 49 °F
Dew Point 47 °F
Humidity 93%
Rainfall -999.00 in
Snow Depth Not available.
UV 3 out of 12
Pollen 6.80 out of 12
Air Quality Not available.
Flu Activity Sporadic
METAR KPVF 221815Z AUTO 18004KT 10SM SCT017 OVC035 13/09 A3002 RMK AO1

More Conditions Fewer Conditions

Pressure 30.02 in
Visibility 10.0 miles
Clouds Scattered Clouds 1700 ft
Overcast 3500 ft
Windchill 49 °F
Dew Point 47 °F
Humidity 93%
Rainfall -999.00 in
Snow Depth Not available.
UV 3 out of 12
Pollen 6.80 out of 12
Air Quality Not available.
Flu Activity Sporadic
METAR KPVF 221815Z AUTO 18004KT 10SM SCT017 OVC035 13/09 A3002 RMK AO1

More Conditions Fewer Conditions

10-Day Weather Forecast

Almanac

Astronomy

May. 22, 2015 Rise Set
Actual Time
Civil Twilight
Nautical Twilight
Astronomical Twilight
Moon
Length of Visible Light
Length of Day
Tomorrow will be .
, % of the Moon is Illuminated

Today's Extremes

State Highs State Lows

Community

WunderPhotos

Upload Photos

1,823,276 photos uploaded!

WunderBlogs® & News

Nearby

Air Quality

  Air Quality AQ Index Pollutant
Not available.

Snow Depth

Station Depth Elevation

Earthquake Activity

City Distance Mag. Time & Date
Minimum magnitude displayed is 2.5.

Coastal Water Temperatures

Place Temperature

Stations

Nearby Weather Stations

Station Location Temp. Windchill Dew Point Humidity Wind Precip. Elev Updated Type